createdAt,value
2023-05-15T00:01:48.322Z,18.35
2023-05-15T00:04:14.778Z,17.77
2023-05-15T00:06:41.189Z,20.10
2023-05-15T00:09:08.641Z,19.75
2023-05-15T00:11:35.017Z,21.13
2023-05-15T00:14:01.404Z,20.95
2023-05-15T00:16:28.399Z,21.25
2023-05-15T00:18:54.865Z,21.33
2023-05-15T00:21:21.247Z,21.67
2023-05-15T00:23:47.638Z,21.52
2023-05-15T00:26:15.720Z,20.83
2023-05-15T00:28:42.146Z,18.30
2023-05-15T00:31:08.974Z,21.05
2023-05-15T00:33:35.464Z,21.23
2023-05-15T00:36:04.575Z,21.98
2023-05-15T00:38:30.953Z,23.85
2023-05-15T00:40:57.302Z,23.45
2023-05-15T00:43:25.413Z,22.48
2023-05-15T00:45:52.695Z,21.42
2023-05-15T00:48:19.621Z,22.70
2023-05-15T00:50:46.307Z,23.83
2023-05-15T00:53:12.772Z,24.63
2023-05-15T00:55:41.479Z,25.33
2023-05-15T00:58:07.982Z,22.95
2023-05-15T01:00:34.445Z,24.77
2023-05-15T01:03:01.851Z,25.70
2023-05-15T01:05:28.855Z,24.20
2023-05-15T01:08:06.652Z,26.40
2023-05-15T01:10:34.518Z,26.02
2023-05-15T01:13:02.273Z,26.73
2023-05-15T01:15:28.698Z,26.58
2023-05-15T01:17:55.147Z,28.17
2023-05-15T01:20:22.274Z,28.50
2023-05-15T01:23:03.913Z,27.20
2023-05-15T01:25:43.909Z,27.90
2023-05-15T01:28:12.209Z,28.17
2023-05-15T01:30:40.645Z,27.80
2023-05-15T01:33:24.754Z,29.88
2023-05-15T01:36:02.823Z,30.40
2023-05-15T01:38:39.819Z,28.80
2023-05-15T01:41:10.642Z,30.15
2023-05-15T01:43:39.453Z,32.43
2023-05-15T01:46:08.012Z,32.13
2023-05-15T01:48:36.376Z,30.17
2023-05-15T01:51:04.749Z,29.70
2023-05-15T01:53:31.861Z,29.30
2023-05-15T01:55:58.877Z,31.30
2023-05-15T01:58:26.911Z,28.95
2023-05-15T02:00:53.865Z,29.83
2023-05-15T02:03:21.035Z,29.77
2023-05-15T02:05:48.197Z,29.65
2023-05-15T02:08:15.632Z,30.08
2023-05-15T02:10:43.634Z,29.65
2023-05-15T02:13:11.248Z,32.35
2023-05-15T02:15:38.472Z,31.88
2023-05-15T02:18:05.073Z,33.75
2023-05-15T02:20:31.364Z,32.53
2023-05-15T02:22:57.777Z,33.75
2023-05-15T02:25:30.381Z,31.13
2023-05-15T02:30:34.592Z,29.65
2023-05-15T02:33:16.269Z,29.05
2023-05-15T02:38:13.381Z,27.15
2023-05-15T02:40:40.239Z,30.50
2023-05-15T02:43:07.419Z,29.83
2023-05-15T02:45:34.245Z,32.00
2023-05-15T02:48:01.324Z,32.78
2023-05-15T02:50:27.997Z,30.63
2023-05-15T02:53:04.785Z,29.58
2023-05-15T02:55:31.530Z,33.10
2023-05-15T02:57:57.927Z,33.03
2023-05-15T03:00:24.455Z,33.25
2023-05-15T03:02:50.821Z,33.42
2023-05-15T03:05:17.223Z,34.22
2023-05-15T03:07:43.839Z,34.75
2023-05-15T03:10:10.473Z,34.53
2023-05-15T03:12:36.793Z,32.08
2023-05-15T03:15:03.220Z,32.85
2023-05-15T03:17:29.571Z,33.50
2023-05-15T03:19:56.445Z,32.40
2023-05-15T03:22:22.879Z,30.92
2023-05-15T03:24:49.917Z,29.95
2023-05-15T03:27:16.332Z,31.52
2023-05-15T03:29:42.906Z,30.20
2023-05-15T03:32:09.289Z,27.20
2023-05-15T03:34:35.922Z,29.85
2023-05-15T03:37:02.411Z,30.65
2023-05-15T03:39:28.779Z,28.35
2023-05-15T03:41:55.241Z,28.10
2023-05-15T03:44:22.720Z,28.13
2023-05-15T03:46:49.124Z,27.60
2023-05-15T03:49:17.466Z,26.35
2023-05-15T03:51:43.907Z,25.85
2023-05-15T03:54:10.321Z,26.25
2023-05-15T03:56:36.668Z,26.27
2023-05-15T03:59:03.062Z,25.60
2023-05-15T04:01:29.428Z,26.27
2023-05-15T04:03:55.786Z,22.58
2023-05-15T04:06:22.836Z,25.55
2023-05-15T04:08:49.531Z,23.05
2023-05-15T04:11:16.211Z,24.63
2023-05-15T04:13:42.517Z,23.95
2023-05-15T04:16:09.820Z,24.48
2023-05-15T04:18:36.263Z,24.27
2023-05-15T04:21:03.385Z,25.50
2023-05-15T04:23:29.738Z,23.40
2023-05-15T04:25:56.837Z,23.88
2023-05-15T04:28:23.272Z,25.55
2023-05-15T04:30:49.653Z,22.73
2023-05-15T04:33:16.028Z,20.23
2023-05-15T04:35:42.520Z,21.55
2023-05-15T04:38:08.863Z,22.42
2023-05-15T04:40:35.368Z,22.55
2023-05-15T04:43:03.959Z,22.42
2023-05-15T04:45:30.315Z,24.02
2023-05-15T04:47:56.863Z,23.35
2023-05-15T04:50:23.317Z,23.50
2023-05-15T04:52:50.099Z,24.20
2023-05-15T04:55:16.873Z,23.83
2023-05-15T04:57:43.608Z,23.98
2023-05-15T05:00:11.956Z,24.77
2023-05-15T05:02:38.848Z,24.35
2023-05-15T05:05:06.283Z,23.00
2023-05-15T05:07:32.841Z,21.63
2023-05-15T05:09:59.326Z,22.48
2023-05-15T05:12:27.304Z,21.63
2023-05-15T05:14:55.414Z,22.48
2023-05-15T05:17:21.739Z,20.98
2023-05-15T05:19:48.059Z,19.88
2023-05-15T05:22:14.377Z,20.13
2023-05-15T05:24:40.802Z,20.52
2023-05-15T05:27:07.162Z,20.23
2023-05-15T05:29:33.529Z,20.77
2023-05-15T05:32:00.034Z,19.98
2023-05-15T05:34:26.599Z,19.60
2023-05-15T05:36:52.967Z,18.48
2023-05-15T05:39:19.344Z,19.55
2023-05-15T05:41:45.815Z,18.23
2023-05-15T05:44:12.266Z,17.02
2023-05-15T05:46:38.636Z,17.00
2023-05-15T05:49:04.991Z,16.70
2023-05-15T05:51:31.810Z,16.83
2023-05-15T05:53:58.138Z,16.40
2023-05-15T05:56:24.517Z,15.55
2023-05-15T05:58:50.926Z,15.80
2023-05-15T06:01:17.628Z,16.15
2023-05-15T06:03:44.761Z,16.55
2023-05-15T06:06:11.499Z,17.60
2023-05-15T06:08:38.046Z,18.42
2023-05-15T06:11:05.072Z,19.65
2023-05-15T06:13:31.770Z,20.58
2023-05-15T06:15:58.137Z,19.73
2023-05-15T06:18:24.523Z,19.60
2023-05-15T06:20:51.004Z,21.85
2023-05-15T06:23:17.378Z,21.63
2023-05-15T06:25:43.746Z,21.63
2023-05-15T06:28:10.229Z,21.48
2023-05-15T06:30:36.603Z,20.35
2023-05-15T06:33:03.040Z,19.17
2023-05-15T06:35:29.396Z,19.85
2023-05-15T06:37:57.155Z,17.70
2023-05-15T06:40:24.947Z,16.95
2023-05-15T06:42:51.401Z,17.02
2023-05-15T06:45:18.050Z,17.65
2023-05-15T06:47:44.413Z,18.02
2023-05-15T06:50:10.917Z,17.90
2023-05-15T06:52:37.299Z,17.00
2023-05-15T06:55:06.302Z,16.40
2023-05-15T06:57:33.488Z,17.27
2023-05-15T06:59:59.848Z,16.27
2023-05-15T07:02:26.320Z,16.92
2023-05-15T07:04:52.791Z,16.45
2023-05-15T07:07:19.510Z,15.82
2023-05-15T07:09:48.389Z,16.40
2023-05-15T07:12:15.353Z,16.63
2023-05-15T07:14:41.734Z,17.80
2023-05-15T07:17:08.216Z,18.00
2023-05-15T07:19:34.688Z,18.38
2023-05-15T07:22:03.199Z,16.67
2023-05-15T07:24:29.963Z,18.02
2023-05-15T07:26:58.483Z,17.50
2023-05-15T07:29:25.746Z,15.85
2023-05-15T07:31:52.224Z,14.57
2023-05-15T07:34:18.644Z,15.13
2023-05-15T07:36:45.069Z,12.93
2023-05-15T07:39:11.563Z,13.23
2023-05-15T07:41:38.031Z,15.23
2023-05-15T07:44:04.543Z,16.98
2023-05-15T07:46:30.984Z,14.73
2023-05-15T07:48:57.518Z,12.70
2023-05-15T07:51:23.919Z,15.93
2023-05-15T07:53:50.644Z,17.58
2023-05-15T07:56:17.093Z,17.77
2023-05-15T07:58:43.400Z,15.65
2023-05-15T08:01:09.776Z,14.57
2023-05-15T08:03:36.243Z,12.85
2023-05-15T08:06:02.772Z,12.88
2023-05-15T08:08:29.139Z,13.05
2023-05-15T08:10:55.595Z,12.07
2023-05-15T08:13:21.904Z,12.88
2023-05-15T08:15:48.318Z,13.20
2023-05-15T08:18:14.715Z,13.02
2023-05-15T08:20:41.166Z,12.73
2023-05-15T08:23:07.790Z,12.52
2023-05-15T08:25:34.197Z,13.23
2023-05-15T08:28:01.555Z,13.05
2023-05-15T08:30:27.935Z,12.73
2023-05-15T08:32:54.484Z,12.27
2023-05-15T08:35:21.073Z,12.07
2023-05-15T08:37:47.429Z,12.57
2023-05-15T08:40:13.844Z,12.23
2023-05-15T08:42:46.988Z,12.55
2023-05-15T08:45:14.182Z,12.75
2023-05-15T08:47:41.187Z,12.98
2023-05-15T08:50:10.219Z,13.05
2023-05-15T08:52:36.578Z,11.90
2023-05-15T08:55:03.839Z,12.45
2023-05-15T08:57:31.963Z,13.32
2023-05-15T08:59:59.066Z,12.40
2023-05-15T09:02:26.191Z,11.43
2023-05-15T09:04:52.687Z,12.32
2023-05-15T09:07:19.772Z,11.65
2023-05-15T09:09:47.126Z,11.98
2023-05-15T09:12:16.819Z,12.70
2023-05-15T09:14:43.392Z,12.30
2023-05-15T09:17:10.771Z,11.95
2023-05-15T09:19:38.742Z,12.77
2023-05-15T09:22:16.846Z,13.02
2023-05-15T09:24:43.457Z,13.18
2023-05-15T09:27:11.232Z,12.70
2023-05-15T09:29:38.355Z,12.73
2023-05-15T09:32:06.285Z,12.00
2023-05-15T09:34:34.149Z,13.20
2023-05-15T09:37:01.040Z,13.30
2023-05-15T09:39:27.416Z,13.82
2023-05-15T09:41:54.327Z,13.65
2023-05-15T09:44:24.640Z,13.75
2023-05-15T09:46:51.327Z,14.13
2023-05-15T09:49:18.193Z,13.35
2023-05-15T09:51:44.954Z,15.60
2023-05-15T09:54:14.693Z,16.25
2023-05-15T09:56:43.270Z,16.75
2023-05-15T09:59:12.725Z,15.32
2023-05-15T10:01:39.079Z,14.80
2023-05-15T10:04:06.292Z,18.05
2023-05-15T10:06:36.393Z,15.65
2023-05-15T10:09:03.542Z,16.85
2023-05-15T10:11:30.563Z,18.45
2023-05-15T10:13:58.044Z,16.35
2023-05-15T10:16:25.354Z,20.05
2023-05-15T10:18:52.450Z,21.05
2023-05-15T10:21:20.057Z,22.15
2023-05-15T10:23:47.650Z,18.80
2023-05-15T10:26:23.178Z,22.23
2023-05-15T10:28:50.179Z,22.55
2023-05-15T10:31:18.088Z,22.45
2023-05-15T10:33:44.788Z,24.55
2023-05-15T10:36:11.558Z,28.50
2023-05-15T10:38:39.228Z,30.77
2023-05-15T10:41:16.560Z,30.75
2023-05-15T10:43:44.290Z,26.83
2023-05-15T10:46:10.944Z,31.15
2023-05-15T10:48:37.593Z,30.63
2023-05-15T10:51:03.982Z,32.45
2023-05-15T10:53:31.670Z,30.08
2023-05-15T10:55:58.131Z,33.58
2023-05-15T10:58:24.542Z,32.63
2023-05-15T11:00:51.241Z,32.65
2023-05-15T11:03:48.031Z,31.77
2023-05-15T11:06:15.605Z,32.33
2023-05-15T11:08:43.009Z,34.78
2023-05-15T11:11:09.402Z,31.90
2023-05-15T11:14:08.009Z,30.90
2023-05-15T11:16:52.842Z,29.35
2023-05-15T11:19:28.377Z,30.13
2023-05-15T11:21:58.023Z,26.88
2023-05-15T11:24:31.168Z,25.92
2023-05-15T11:27:01.036Z,27.00
2023-05-15T11:29:27.545Z,25.27
2023-05-15T11:31:53.980Z,24.98
2023-05-15T11:34:35.496Z,23.83
2023-05-15T11:37:04.568Z,24.33
2023-05-15T11:39:31.024Z,23.35
2023-05-15T11:41:59.128Z,22.40
2023-05-15T11:44:26.257Z,22.30
2023-05-15T11:46:52.910Z,22.45
2023-05-15T11:49:19.584Z,21.48
2023-05-15T11:51:47.771Z,21.35
2023-05-15T11:54:14.590Z,23.40
2023-05-15T11:56:44.695Z,22.17
2023-05-15T11:59:17.106Z,21.27
2023-05-15T12:01:47.204Z,19.25
2023-05-15T12:04:14.903Z,19.10
2023-05-15T12:06:41.502Z,17.15
2023-05-15T12:09:12.985Z,18.38
2023-05-15T12:11:39.337Z,15.90
2023-05-15T12:14:05.756Z,15.95
2023-05-15T12:16:32.969Z,15.93
2023-05-15T12:18:59.640Z,15.80
2023-05-15T12:21:26.656Z,15.95
2023-05-15T12:24:06.428Z,15.13
2023-05-15T12:26:34.708Z,14.90
2023-05-15T12:29:01.208Z,15.20
2023-05-15T12:31:27.833Z,14.75
2023-05-15T12:33:54.240Z,14.95
2023-05-15T12:36:21.342Z,14.38
2023-05-15T12:38:48.389Z,13.80
2023-05-15T12:41:14.954Z,14.13
2023-05-15T12:43:41.388Z,16.90
2023-05-15T12:46:07.887Z,14.98
2023-05-15T12:48:35.943Z,13.85
2023-05-15T12:51:07.028Z,12.77
2023-05-15T12:53:36.370Z,11.88
2023-05-15T12:56:03.089Z,11.40
2023-05-15T12:58:29.571Z,11.25
2023-05-15T13:00:56.932Z,12.43
2023-05-15T13:03:25.044Z,12.15
2023-05-15T13:05:52.189Z,13.63
2023-05-15T13:08:18.772Z,14.13
2023-05-15T13:10:46.472Z,14.95
2023-05-15T13:13:13.185Z,15.43
2023-05-15T13:15:40.970Z,13.32
2023-05-15T13:18:08.790Z,13.35
2023-05-15T13:20:36.481Z,13.60
2023-05-15T13:23:03.359Z,13.95
2023-05-15T13:25:31.922Z,14.77
2023-05-15T13:27:59.551Z,15.10
2023-05-15T13:30:26.403Z,14.23
2023-05-15T13:32:55.549Z,12.75
2023-05-15T13:35:22.476Z,13.75
2023-05-15T13:37:49.444Z,10.50
2023-05-15T13:40:16.010Z,7.22
2023-05-15T13:42:42.824Z,7.00
2023-05-15T13:45:09.898Z,7.35
2023-05-15T13:47:36.437Z,6.57
2023-05-15T13:50:03.253Z,7.82
2023-05-15T13:52:31.254Z,7.38
2023-05-15T13:54:57.661Z,8.98
2023-05-15T13:57:24.079Z,9.18
2023-05-15T13:59:50.473Z,8.98
2023-05-15T14:02:16.837Z,8.95
2023-05-15T14:04:43.445Z,10.05
2023-05-15T14:07:09.769Z,9.10
2023-05-15T14:09:36.318Z,6.88
2023-05-15T14:12:02.650Z,8.05
2023-05-15T14:14:29.108Z,9.50
2023-05-15T14:16:55.543Z,7.65
2023-05-15T14:19:22.015Z,7.45
2023-05-15T14:21:51.435Z,6.75
2023-05-15T14:24:17.778Z,5.15
2023-05-15T14:26:45.092Z,5.57
2023-05-15T14:29:11.631Z,6.75
2023-05-15T14:31:38.036Z,6.85
2023-05-15T14:34:05.881Z,7.57
2023-05-15T14:36:32.280Z,7.30
2023-05-15T14:39:00.445Z,7.45
2023-05-15T14:41:27.818Z,6.45
2023-05-15T14:43:54.217Z,6.38
2023-05-15T14:46:20.650Z,5.63
2023-05-15T14:48:47.166Z,5.13
2023-05-15T14:51:13.576Z,5.38
2023-05-15T14:53:39.908Z,6.50
2023-05-15T14:56:06.291Z,6.95
2023-05-15T14:58:32.664Z,7.57
2023-05-15T15:00:59.026Z,7.72
2023-05-15T15:03:27.902Z,7.40
2023-05-15T15:05:55.595Z,8.38
2023-05-15T15:08:21.927Z,7.10
2023-05-15T15:10:48.299Z,6.65
2023-05-15T15:13:14.735Z,6.30
2023-05-15T15:15:41.099Z,6.40
2023-05-15T15:18:07.826Z,5.40
2023-05-15T15:20:34.408Z,4.13
2023-05-15T15:23:00.702Z,4.60
2023-05-15T15:25:27.095Z,4.50
2023-05-15T15:27:53.459Z,5.50
2023-05-15T15:30:19.784Z,5.43
2023-05-15T15:32:46.186Z,6.03
2023-05-15T15:35:13.168Z,5.90
2023-05-15T15:37:39.574Z,6.22
2023-05-15T15:40:07.059Z,5.97
2023-05-15T15:42:36.802Z,6.20
2023-05-15T15:45:03.617Z,7.75
2023-05-15T15:47:31.776Z,6.00
2023-05-15T15:49:58.832Z,6.28
2023-05-15T15:52:25.332Z,6.80
2023-05-15T15:54:51.796Z,6.60
2023-05-15T15:57:18.516Z,6.13
2023-05-15T15:59:45.080Z,6.60
2023-05-15T16:02:11.783Z,6.05
2023-05-15T16:04:38.384Z,5.55
2023-05-15T16:07:05.304Z,5.38
2023-05-15T16:09:31.698Z,4.95
2023-05-15T16:11:58.164Z,5.75
2023-05-15T16:14:26.764Z,5.80
2023-05-15T16:16:53.174Z,5.13
2023-05-15T16:19:19.715Z,5.00
2023-05-15T16:21:46.997Z,4.05
2023-05-15T16:24:13.400Z,4.78
2023-05-15T16:26:39.712Z,4.72
2023-05-15T16:29:06.029Z,3.50
2023-05-15T16:31:32.459Z,4.63
2023-05-15T16:34:00.327Z,4.20
2023-05-15T16:36:29.022Z,3.78
2023-05-15T16:38:55.401Z,5.38
2023-05-15T16:41:21.756Z,8.02
2023-05-15T16:43:49.935Z,4.18
2023-05-15T16:46:16.411Z,3.63
2023-05-15T16:48:42.983Z,4.40
2023-05-15T16:51:09.369Z,3.10
2023-05-15T16:53:35.856Z,2.80
2023-05-15T16:56:02.586Z,2.83
2023-05-15T16:58:28.943Z,2.53
2023-05-15T17:00:55.437Z,3.38
2023-05-15T17:03:21.983Z,3.03
2023-05-15T17:05:48.478Z,4.05
2023-05-15T17:08:14.847Z,2.40
2023-05-15T17:10:41.223Z,1.85
2023-05-15T17:13:07.600Z,2.15
2023-05-15T17:15:34.751Z,1.83
2023-05-15T17:18:03.072Z,2.17
2023-05-15T17:20:29.468Z,1.80
2023-05-15T17:22:55.770Z,1.60
2023-05-15T17:25:22.229Z,1.95
2023-05-15T17:27:48.646Z,2.70
2023-05-15T17:30:16.649Z,2.67
2023-05-15T17:32:43.025Z,2.63
2023-05-15T17:35:10.922Z,2.60
2023-05-15T17:37:37.933Z,2.65
2023-05-15T17:40:05.706Z,2.30
2023-05-15T17:42:32.073Z,3.20
2023-05-15T17:44:59.534Z,3.33
2023-05-15T17:47:26.182Z,3.20
2023-05-15T17:49:52.572Z,3.35
2023-05-15T17:52:18.948Z,3.33
2023-05-15T17:54:46.564Z,3.20
2023-05-15T17:57:12.948Z,3.25
2023-05-15T17:59:39.378Z,3.42
2023-05-15T18:02:06.256Z,2.28
2023-05-15T18:04:32.755Z,3.33
2023-05-15T18:06:59.397Z,3.40
2023-05-15T18:09:25.976Z,3.55
2023-05-15T18:11:52.422Z,3.10
2023-05-15T18:14:19.865Z,3.58
2023-05-15T18:16:46.211Z,3.50
2023-05-15T18:19:12.660Z,3.30
2023-05-15T18:21:39.069Z,3.47
2023-05-15T18:24:05.828Z,3.00
2023-05-15T18:26:32.257Z,3.08
2023-05-15T18:28:59.720Z,3.25
2023-05-15T18:31:28.742Z,2.75
2023-05-15T18:33:56.277Z,2.15
2023-05-15T18:36:22.667Z,3.53
2023-05-15T18:38:48.957Z,2.78
2023-05-15T18:41:15.359Z,2.35
2023-05-15T18:43:42.748Z,2.92
2023-05-15T18:46:11.727Z,2.30
2023-05-15T18:48:38.121Z,2.05
2023-05-15T18:51:05.847Z,2.00
2023-05-15T18:53:32.230Z,3.03
2023-05-15T18:55:58.742Z,2.47
2023-05-15T18:58:25.114Z,2.63
2023-05-15T19:00:56.356Z,2.83
2023-05-15T19:03:26.123Z,13.02
2023-05-15T19:05:52.703Z,2.30
2023-05-15T19:08:19.077Z,18.15
2023-05-15T19:10:48.666Z,2.03
2023-05-15T19:13:17.962Z,2.83
2023-05-15T19:15:52.697Z,2.67
2023-05-15T19:18:19.684Z,1.35
2023-05-15T19:20:50.586Z,2.88
2023-05-15T19:23:17.172Z,2.22
2023-05-15T19:25:47.010Z,1.70
2023-05-15T19:28:14.722Z,1.10
2023-05-15T19:30:41.132Z,0.93
2023-05-15T19:33:07.589Z,1.73
2023-05-15T19:35:35.961Z,1.35
2023-05-15T19:38:03.789Z,2.03
2023-05-15T19:40:30.246Z,2.10
2023-05-15T19:42:56.594Z,1.48
2023-05-15T19:45:23.036Z,2.22
2023-05-15T19:47:49.468Z,2.65
2023-05-15T19:50:15.915Z,1.33
2023-05-15T19:52:44.033Z,1.55
2023-05-15T19:55:11.947Z,1.50
2023-05-15T19:57:39.993Z,1.50
2023-05-15T20:00:07.915Z,1.33
2023-05-15T20:02:34.557Z,1.45
2023-05-15T20:05:00.981Z,1.50
2023-05-15T20:07:27.386Z,2.03
2023-05-15T20:09:55.035Z,2.80
2023-05-15T20:12:21.450Z,1.80
2023-05-15T20:14:48.416Z,2.60
2023-05-15T20:17:14.740Z,1.40
2023-05-15T20:19:41.654Z,2.22
2023-05-15T20:22:08.205Z,1.50
2023-05-15T20:24:34.643Z,1.88
2023-05-15T20:27:01.253Z,1.80
2023-05-15T20:29:27.630Z,2.10
2023-05-15T20:31:54.079Z,1.38
2023-05-15T20:34:21.754Z,2.13
2023-05-15T20:36:52.558Z,1.92
2023-05-15T20:39:19.708Z,2.55
2023-05-15T20:41:47.125Z,2.28
2023-05-15T20:44:13.608Z,1.70
2023-05-15T20:46:40.740Z,2.08
2023-05-15T20:49:07.205Z,2.53
2023-05-15T20:51:33.771Z,2.40
2023-05-15T20:54:00.209Z,2.15
2023-05-15T20:56:29.370Z,2.17
2023-05-15T20:58:58.956Z,1.83
2023-05-15T21:01:26.075Z,2.13
2023-05-15T21:03:53.657Z,1.60
2023-05-15T21:06:20.095Z,2.30
2023-05-15T21:08:46.438Z,2.58
2023-05-15T21:11:13.383Z,3.03
2023-05-15T21:13:39.725Z,2.10
2023-05-15T21:16:06.265Z,2.55
2023-05-15T21:18:32.697Z,2.40
2023-05-15T21:20:59.090Z,3.10
2023-05-15T21:23:25.591Z,3.15
2023-05-15T21:25:53.033Z,2.15
2023-05-15T21:28:22.112Z,3.35
2023-05-15T21:30:48.430Z,1.98
2023-05-15T21:33:14.800Z,3.30
2023-05-15T21:35:42.220Z,2.75
2023-05-15T21:38:08.655Z,3.25
2023-05-15T21:40:35.076Z,2.85
2023-05-15T21:43:01.454Z,3.00
2023-05-15T21:45:27.783Z,3.55
2023-05-15T21:47:54.246Z,2.25
2023-05-15T21:50:20.593Z,2.67
2023-05-15T21:52:46.948Z,3.22
2023-05-15T21:55:13.409Z,3.35
2023-05-15T21:57:39.780Z,3.35
2023-05-15T22:00:07.483Z,3.08
2023-05-15T22:02:34.210Z,3.00
2023-05-15T22:05:00.619Z,3.33
2023-05-15T22:07:27.071Z,3.80
2023-05-15T22:09:53.445Z,2.97
2023-05-15T22:12:19.840Z,2.85
2023-05-15T22:14:57.835Z,2.70
2023-05-15T22:17:27.176Z,3.53
2023-05-15T22:19:53.838Z,3.40
2023-05-15T22:22:20.820Z,2.47
2023-05-15T22:24:47.178Z,2.25
2023-05-15T22:27:16.430Z,2.60
2023-05-15T22:29:42.812Z,3.13
2023-05-15T22:32:09.290Z,3.10
2023-05-15T22:34:35.831Z,3.42
2023-05-15T22:37:02.251Z,2.67
2023-05-15T22:39:29.813Z,3.55
2023-05-15T22:41:56.130Z,2.92
2023-05-15T22:44:22.487Z,2.88
2023-05-15T22:46:49.588Z,2.95
2023-05-15T22:49:19.264Z,3.13
2023-05-15T22:51:45.772Z,3.40
2023-05-15T22:54:12.551Z,3.05
2023-05-15T22:56:38.940Z,3.08
2023-05-15T22:59:05.544Z,2.78
2023-05-15T23:01:32.242Z,3.15
2023-05-15T23:03:58.737Z,3.20
2023-05-15T23:06:25.420Z,3.15
2023-05-15T23:08:51.798Z,3.53
2023-05-15T23:11:18.374Z,3.13
2023-05-15T23:13:44.738Z,2.90
2023-05-15T23:16:11.506Z,3.10
2023-05-15T23:18:37.983Z,3.67
2023-05-15T23:21:04.786Z,3.92
2023-05-15T23:23:31.203Z,3.17
2023-05-15T23:25:57.649Z,3.55
2023-05-15T23:28:24.010Z,3.15
2023-05-15T23:30:53.743Z,3.40
2023-05-15T23:33:20.097Z,2.83
2023-05-15T23:35:46.464Z,2.80
2023-05-15T23:38:12.963Z,2.55
2023-05-15T23:40:39.303Z,2.80
2023-05-15T23:43:08.776Z,2.83
2023-05-15T23:45:35.177Z,3.22
2023-05-15T23:48:01.592Z,2.45
2023-05-15T23:50:28.307Z,3.13
2023-05-15T23:52:54.969Z,2.58
2023-05-15T23:55:21.314Z,3.05
2023-05-15T23:57:48.260Z,2.72
